Time;durP1;ratioP1;P1;durP2;ratioP2;P2;SDS_P1;SDS_P2;PMS_P1;PMS_P2;Temp;Humidity;BMP_temperature;BMP_pressure;BME280_temperature;BME280_humidity;BME280_pressure;Samples;Min_cycle;Max_cycle;Signal;HPM_P1;HPM_P2
2023/06/05 00:01:44;;;;;;;3.88;1.73;;;;;;;;;;5055775;28;20033;-59
2023/06/05 00:04:10;;;;;;;3.15;1.60;;;;;;;;;;5056240;28;20039;-59
2023/06/05 00:06:39;;;;;;;2.47;1.35;;;;;;;;;;5055841;28;20029;-59
2023/06/05 00:09:05;;;;;;;2.40;1.20;;;;;;;;;;5055988;28;20056;-59
2023/06/05 00:11:31;;;;;;;2.65;1.40;;;;;;;;;;5055664;28;20017;-59
2023/06/05 00:13:57;;;;;;;2.88;1.50;;;;;;;;;;5055889;28;20049;-59
2023/06/05 00:16:23;;;;;;;4.32;1.50;;;;;;;;;;5055470;28;20029;-59
2023/06/05 00:18:50;;;;;;;2.33;1.15;;;;;;;;;;5055744;28;20060;-59
2023/06/05 00:21:16;;;;;;;2.40;1.50;;;;;;;;;;5055970;28;20032;-59
2023/06/05 00:23:43;;;;;;;3.97;1.50;;;;;;;;;;5055678;28;20032;-59
2023/06/05 00:26:09;;;;;;;1.98;1.20;;;;;;;;;;5055406;28;20494;-59
2023/06/05 00:28:35;;;;;;;2.80;1.50;;;;;;;;;;5055780;28;20029;-59
2023/06/05 00:31:01;;;;;;;3.20;1.50;;;;;;;;;;5054931;28;20522;-59
2023/06/05 00:33:30;;;;;;;1.90;1.00;;;;;;;;;;5055513;28;20108;-59
2023/06/05 00:35:55;;;;;;;2.00;1.13;;;;;;;;;;5055717;28;20021;-59
2023/06/05 00:38:21;;;;;;;3.00;1.52;;;;;;;;;;5055723;28;20021;-59
2023/06/05 00:40:47;;;;;;;6.20;1.33;;;;;;;;;;5055370;28;20021;-59
2023/06/05 00:43:13;;;;;;;2.13;1.27;;;;;;;;;;5054980;28;20025;-59
2023/06/05 00:45:39;;;;;;;2.20;1.30;;;;;;;;;;5054952;28;20060;-59
2023/06/05 00:48:06;;;;;;;2.08;1.05;;;;;;;;;;5055784;28;20416;-59
2023/06/05 00:50:33;;;;;;;2.75;1.27;;;;;;;;;;5054867;28;20454;-59
2023/06/05 00:53:01;;;;;;;3.60;1.65;;;;;;;;;;5054845;28;20067;-59
2023/06/05 00:55:27;;;;;;;2.58;1.45;;;;;;;;;;5054759;28;20032;-59
2023/06/05 00:57:54;;;;;;;2.80;1.58;;;;;;;;;;5055068;28;20028;-59
2023/06/05 01:00:20;;;;;;;2.17;1.25;;;;;;;;;;5055413;28;20470;-59
2023/06/05 01:02:46;;;;;;;2.20;1.10;;;;;;;;;;5054395;28;20025;-59
2023/06/05 01:05:13;;;;;;;4.20;1.73;;;;;;;;;;5054361;28;20414;-59
2023/06/05 01:07:39;;;;;;;2.42;1.45;;;;;;;;;;5054886;28;20082;-59
2023/06/05 01:10:06;;;;;;;2.40;1.35;;;;;;;;;;5054609;28;20025;-59
2023/06/05 01:12:38;;;;;;;2.75;1.20;;;;;;;;;;5054852;28;20057;-59
2023/06/05 01:15:06;;;;;;;2.10;1.20;;;;;;;;;;5054599;28;20418;-59
2023/06/05 01:17:33;;;;;;;3.55;1.33;;;;;;;;;;5054482;28;20022;-59
2023/06/05 01:20:09;;;;;;;2.22;1.02;;;;;;;;;;5054404;28;20026;-59
2023/06/05 01:22:37;;;;;;;2.30;1.45;;;;;;;;;;5054390;28;20064;-59
2023/06/05 01:25:03;;;;;;;2.67;1.58;;;;;;;;;;5054489;28;20033;-59
2023/06/05 01:27:29;;;;;;;2.53;1.25;;;;;;;;;;5054115;28;20021;-59
2023/06/05 01:30:03;;;;;;;4.28;1.70;;;;;;;;;;5054223;28;20025;-59
2023/06/05 01:32:48;;;;;;;1.58;0.95;;;;;;;;;;5054803;28;20078;-59
2023/06/05 01:35:16;;;;;;;2.17;1.13;;;;;;;;;;5053922;28;20064;-59
2023/06/05 01:37:46;;;;;;;2.28;1.13;;;;;;;;;;5054754;28;20351;-59
2023/06/05 01:40:14;;;;;;;2.63;1.30;;;;;;;;;;5054308;28;20108;-59
2023/06/05 01:42:40;;;;;;;2.00;1.20;;;;;;;;;;5053711;28;20494;-59
2023/06/05 01:45:08;;;;;;;2.33;1.10;;;;;;;;;;5054000;28;20123;-59
2023/06/05 01:47:35;;;;;;;2.33;1.25;;;;;;;;;;5054118;28;20029;-59
2023/06/05 01:50:01;;;;;;;3.42;1.33;;;;;;;;;;5053981;28;20029;-59
2023/06/05 01:52:26;;;;;;;3.03;1.75;;;;;;;;;;5053923;28;20062;-59
2023/06/05 01:54:54;;;;;;;2.00;1.23;;;;;;;;;;5054446;28;20135;-59
2023/06/05 01:57:21;;;;;;;2.88;1.60;;;;;;;;;;5054351;28;20159;-59
2023/06/05 01:59:49;;;;;;;2.53;1.45;;;;;;;;;;5054608;28;20025;-59
2023/06/05 02:02:16;;;;;;;3.60;1.83;;;;;;;;;;5053962;28;20025;-58
2023/06/05 02:04:47;;;;;;;2.78;1.70;;;;;;;;;;5053634;28;20068;-59
2023/06/05 02:07:14;;;;;;;2.80;1.75;;;;;;;;;;5054287;28;20467;-59
2023/06/05 02:09:40;;;;;;;2.53;1.75;;;;;;;;;;5053653;28;20029;-59
2023/06/05 02:12:07;;;;;;;3.28;1.48;;;;;;;;;;5054095;28;20021;-59
2023/06/05 02:14:35;;;;;;;2.17;1.67;;;;;;;;;;5053732;28;20057;-59
2023/06/05 02:17:02;;;;;;;2.78;1.75;;;;;;;;;;5053852;28;20023;-59
2023/06/05 02:19:28;;;;;;;2.78;1.35;;;;;;;;;;5053611;28;20096;-59
2023/06/05 02:21:54;;;;;;;3.20;1.73;;;;;;;;;;5053595;28;20430;-58
2023/06/05 02:24:20;;;;;;;1.85;1.00;;;;;;;;;;5054096;28;20057;-59
2023/06/05 02:26:46;;;;;;;3.90;1.80;;;;;;;;;;5054179;28;20029;-59
2023/06/05 02:29:12;;;;;;;2.42;1.77;;;;;;;;;;5054345;28;20033;-59
2023/06/05 02:31:38;;;;;;;2.83;1.70;;;;;;;;;;5053434;28;20021;-59
2023/06/05 02:34:04;;;;;;;2.47;1.50;;;;;;;;;;5053784;28;20029;-58
2023/06/05 02:36:32;;;;;;;3.30;1.90;;;;;;;;;;5054019;28;20455;-59
2023/06/05 02:38:59;;;;;;;2.30;1.42;;;;;;;;;;5053376;28;20033;-58
2023/06/05 02:41:26;;;;;;;5.47;1.80;;;;;;;;;;5055729;28;20021;-59
2023/06/05 02:43:54;;;;;;;2.10;1.30;;;;;;;;;;5057528;28;20033;-58
2023/06/05 02:46:21;;;;;;;3.17;1.85;;;;;;;;;;5057913;28;20348;-58
2023/06/05 02:48:47;;;;;;;3.35;1.52;;;;;;;;;;5057792;28;20028;-58
2023/06/05 02:51:13;;;;;;;3.25;1.75;;;;;;;;;;5057549;28;20095;-58
2023/06/05 02:53:39;;;;;;;3.65;1.58;;;;;;;;;;5057806;28;20032;-58
2023/06/05 02:56:05;;;;;;;4.53;1.95;;;;;;;;;;5057368;28;20025;-58
2023/06/05 02:58:33;;;;;;;2.97;1.40;;;;;;;;;;5057458;28;20067;-58
2023/06/05 03:01:01;;;;;;;2.58;1.73;;;;;;;;;;5056743;28;20056;-59
2023/06/05 03:03:29;;;;;;;3.30;1.85;;;;;;;;;;5057708;28;20033;-58
2023/06/05 03:05:55;;;;;;;2.30;1.45;;;;;;;;;;5057678;28;20329;-58
2023/06/05 03:08:21;;;;;;;3.33;1.83;;;;;;;;;;5057549;28;20411;-59
2023/06/05 03:10:47;;;;;;;2.85;1.55;;;;;;;;;;5057705;28;20060;-58
2023/06/05 03:13:13;;;;;;;3.22;1.80;;;;;;;;;;5057697;28;20108;-59
2023/06/05 03:15:39;;;;;;;2.78;1.77;;;;;;;;;;5057460;28;20158;-58
2023/06/05 03:18:05;;;;;;;2.92;1.88;;;;;;;;;;5056474;28;20497;-58
2023/06/05 03:20:31;;;;;;;2.78;1.70;;;;;;;;;;5057098;28;20025;-58
2023/06/05 03:22:57;;;;;;;2.60;1.38;;;;;;;;;;5056777;28;20375;-59
2023/06/05 03:25:23;;;;;;;2.90;1.45;;;;;;;;;;5056907;28;20339;-59
2023/06/05 03:27:55;;;;;;;2.58;1.48;;;;;;;;;;5056721;28;20374;-59
2023/06/05 03:30:21;;;;;;;2.45;1.60;;;;;;;;;;5056562;28;20101;-58
2023/06/05 03:32:47;;;;;;;3.15;1.50;;;;;;;;;;5056888;28;20036;-58
2023/06/05 03:35:14;;;;;;;2.65;1.70;;;;;;;;;;5056529;28;20028;-58
2023/06/05 03:37:40;;;;;;;2.45;1.52;;;;;;;;;;5056746;28;20078;-58
2023/06/05 03:40:06;;;;;;;3.60;1.70;;;;;;;;;;5056468;28;20409;-58
2023/06/05 03:42:32;;;;;;;2.45;1.42;;;;;;;;;;5056647;28;20021;-58
2023/06/05 03:44:58;;;;;;;4.10;1.77;;;;;;;;;;5056223;28;20064;-58
2023/06/05 03:47:24;;;;;;;2.22;1.38;;;;;;;;;;5056706;28;20029;-58
2023/06/05 03:49:52;;;;;;;3.00;1.98;;;;;;;;;;5056267;28;20413;-59
2023/06/05 03:52:23;;;;;;;2.78;1.90;;;;;;;;;;5055591;28;20534;-58
2023/06/05 03:54:53;;;;;;;2.40;1.60;;;;;;;;;;5057005;28;20048;-58
2023/06/05 03:57:20;;;;;;;3.03;1.65;;;;;;;;;;5056708;28;20029;-58
2023/06/05 03:59:46;;;;;;;3.65;1.60;;;;;;;;;;5056057;28;20037;-58
2023/06/05 04:02:12;;;;;;;3.13;1.95;;;;;;;;;;5056358;28;20497;-58
2023/06/05 04:04:38;;;;;;;2.10;1.17;;;;;;;;;;5056454;28;20078;-58
2023/06/05 04:07:05;;;;;;;2.20;1.27;;;;;;;;;;5056058;28;20021;-59
2023/06/05 04:09:31;;;;;;;2.80;1.75;;;;;;;;;;5055836;28;20025;-58
2023/06/05 04:11:57;;;;;;;4.53;2.28;;;;;;;;;;5055873;28;20021;-59
2023/06/05 04:14:23;;;;;;;2.40;1.38;;;;;;;;;;5055934;28;20048;-58
2023/06/05 04:16:49;;;;;;;2.47;1.48;;;;;;;;;;5056273;28;20017;-59
2023/06/05 04:19:15;;;;;;;2.42;1.65;;;;;;;;;;5055885;28;20017;-59
2023/06/05 04:21:41;;;;;;;3.75;1.58;;;;;;;;;;5056181;28;20025;-58
2023/06/05 04:24:10;;;;;;;3.85;2.35;;;;;;;;;;5055206;28;20032;-58
2023/06/05 04:26:37;;;;;;;2.30;1.27;;;;;;;;;;5056438;28;20033;-58
2023/06/05 04:29:09;;;;;;;2.70;1.50;;;;;;;;;;5055520;28;20079;-58
2023/06/05 04:31:35;;;;;;;2.80;1.60;;;;;;;;;;5056042;28;20024;-58
2023/06/05 04:34:05;;;;;;;2.53;1.55;;;;;;;;;;5055679;28;20025;-58
2023/06/05 04:36:32;;;;;;;2.92;1.75;;;;;;;;;;5055827;28;20025;-58
2023/06/05 04:38:58;;;;;;;2.20;1.52;;;;;;;;;;5055797;28;20090;-58
2023/06/05 04:41:24;;;;;;;2.35;1.70;;;;;;;;;;5055351;28;20530;-58
2023/06/05 04:43:50;;;;;;;2.50;1.48;;;;;;;;;;5055735;28;20450;-58
2023/06/05 04:46:16;;;;;;;2.40;1.85;;;;;;;;;;5056001;28;20036;-58
2023/06/05 04:48:42;;;;;;;3.50;2.10;;;;;;;;;;5055100;28;20039;-59
2023/06/05 04:51:09;;;;;;;3.20;1.73;;;;;;;;;;5055581;28;20071;-58
2023/06/05 04:53:35;;;;;;;3.20;1.90;;;;;;;;;;5055047;28;20057;-58
2023/06/05 04:56:01;;;;;;;3.28;1.83;;;;;;;;;;5055538;28;20025;-59
2023/06/05 04:58:27;;;;;;;2.78;1.55;;;;;;;;;;5055544;28;20024;-58
2023/06/05 05:00:53;;;;;;;3.17;2.33;;;;;;;;;;5054877;28;20455;-59
2023/06/05 05:03:20;;;;;;;2.83;1.88;;;;;;;;;;5053680;28;20116;-59
2023/06/05 05:05:46;;;;;;;3.10;2.08;;;;;;;;;;5054733;28;20103;-59
2023/06/05 05:08:12;;;;;;;2.75;1.35;;;;;;;;;;5054764;28;20032;-59
2023/06/05 05:10:38;;;;;;;2.95;1.15;;;;;;;;;;5054490;28;20029;-59
2023/06/05 05:13:04;;;;;;;3.92;1.65;;;;;;;;;;5054702;28;20029;-59
2023/06/05 05:15:30;;;;;;;2.83;2.00;;;;;;;;;;5055243;28;20056;-59
2023/06/05 05:17:56;;;;;;;4.15;2.20;;;;;;;;;;5054302;28;20017;-59
2023/06/05 05:20:22;;;;;;;3.15;1.80;;;;;;;;;;5054303;28;20025;-59
2023/06/05 05:22:49;;;;;;;4.82;1.60;;;;;;;;;;5055029;28;20467;-59
2023/06/05 05:25:15;;;;;;;4.03;2.00;;;;;;;;;;5054123;28;20360;-59
2023/06/05 05:27:41;;;;;;;4.47;2.25;;;;;;;;;;5055200;28;20394;-59
2023/06/05 05:30:08;;;;;;;3.40;1.80;;;;;;;;;;5054319;28;20387;-59
2023/06/05 05:32:34;;;;;;;2.60;1.85;;;;;;;;;;5054336;28;20037;-59
2023/06/05 05:35:00;;;;;;;5.70;2.28;;;;;;;;;;5054217;28;20082;-59
2023/06/05 05:37:26;;;;;;;7.32;2.00;;;;;;;;;;5055015;28;20021;-59
2023/06/05 05:39:52;;;;;;;3.50;2.08;;;;;;;;;;5053979;28;20526;-59
2023/06/05 05:42:18;;;;;;;3.17;1.83;;;;;;;;;;5053896;28;20433;-60
2023/06/05 05:44:44;;;;;;;3.08;2.08;;;;;;;;;;5053975;28;20114;-60
2023/06/05 05:47:11;;;;;;;3.53;2.05;;;;;;;;;;5054367;28;20040;-59
2023/06/05 05:49:37;;;;;;;2.60;1.63;;;;;;;;;;5054788;28;20116;-59
2023/06/05 05:52:03;;;;;;;2.60;1.80;;;;;;;;;;5053706;28;20028;-59
2023/06/05 05:54:29;;;;;;;2.83;1.50;;;;;;;;;;5053861;28;20033;-60
2023/06/05 05:56:55;;;;;;;2.75;1.67;;;;;;;;;;5054697;28;20083;-60
2023/06/05 05:59:22;;;;;;;3.95;1.70;;;;;;;;;;5053640;28;20471;-60
2023/06/05 06:01:48;;;;;;;3.40;1.75;;;;;;;;;;5054129;28;20032;-59
2023/06/05 06:04:14;;;;;;;3.20;2.22;;;;;;;;;;5054562;28;20021;-60
2023/06/05 06:06:40;;;;;;;2.90;1.90;;;;;;;;;;5054015;28;20074;-60
2023/06/05 06:09:10;;;;;;;3.42;2.05;;;;;;;;;;5053667;28;20115;-60
2023/06/05 06:11:39;;;;;;;3.13;2.20;;;;;;;;;;5053748;28;20363;-59
2023/06/05 06:14:06;;;;;;;4.30;2.17;;;;;;;;;;5052983;28;20052;-59
2023/06/05 06:16:33;;;;;;;4.13;2.25;;;;;;;;;;5054164;28;20021;-60
2023/06/05 06:18:58;;;;;;;2.90;2.33;;;;;;;;;;5053668;28;20099;-60
2023/06/05 06:21:25;;;;;;;3.95;1.88;;;;;;;;;;5054232;28;20503;-60
2023/06/05 06:23:51;;;;;;;3.60;2.20;;;;;;;;;;5054059;28;20029;-60
2023/06/05 06:26:17;;;;;;;3.92;2.15;;;;;;;;;;5053980;28;20371;-59
2023/06/05 06:28:43;;;;;;;4.10;1.98;;;;;;;;;;5053556;28;20025;-60
2023/06/05 06:31:09;;;;;;;3.50;2.38;;;;;;;;;;5053585;28;20025;-60
2023/06/05 06:33:36;;;;;;;3.30;2.03;;;;;;;;;;5053875;28;20040;-60
2023/06/05 06:36:03;;;;;;;3.85;2.35;;;;;;;;;;5053486;28;20036;-60
2023/06/05 06:38:32;;;;;;;5.85;2.40;;;;;;;;;;5053197;28;20025;-59
2023/06/05 06:40:59;;;;;;;7.03;2.70;;;;;;;;;;5053184;28;20025;-59
2023/06/05 06:43:25;;;;;;;5.18;2.80;;;;;;;;;;5053467;28;20467;-59
2023/06/05 06:45:53;;;;;;;4.97;3.30;;;;;;;;;;5053443;28;20029;-59
2023/06/05 06:48:19;;;;;;;4.05;3.22;;;;;;;;;;5053855;28;20363;-59
2023/06/05 06:50:45;;;;;;;5.05;3.55;;;;;;;;;;5053424;28;20021;-59
2023/06/05 06:53:11;;;;;;;5.70;3.25;;;;;;;;;;5053088;28;20107;-59
2023/06/05 06:55:38;;;;;;;4.35;3.72;;;;;;;;;;5053587;28;20021;-59
2023/06/05 06:58:04;;;;;;;4.72;3.13;;;;;;;;;;5053435;28;20107;-59
2023/06/05 07:00:30;;;;;;;6.28;3.28;;;;;;;;;;5053502;28;20463;-59
2023/06/05 07:02:56;;;;;;;6.78;3.25;;;;;;;;;;5053304;28;20025;-59
2023/06/05 07:05:22;;;;;;;4.85;2.90;;;;;;;;;;5053060;28;20025;-59
2023/06/05 07:07:48;;;;;;;7.82;3.05;;;;;;;;;;5054063;28;20029;-59
2023/06/05 07:10:14;;;;;;;4.35;2.33;;;;;;;;;;5053262;28;20032;-59
2023/06/05 07:12:40;;;;;;;3.53;2.53;;;;;;;;;;5053197;28;20025;-59
2023/06/05 07:15:06;;;;;;;3.78;2.58;;;;;;;;;;5053194;28;20053;-59
2023/06/05 07:17:32;;;;;;;3.78;2.15;;;;;;;;;;5053071;28;20025;-59
2023/06/05 07:19:58;;;;;;;3.17;2.28;;;;;;;;;;5053644;28;20082;-59
2023/06/05 07:22:25;;;;;;;3.63;2.50;;;;;;;;;;5052830;28;20025;-59
2023/06/05 07:24:53;;;;;;;4.50;2.83;;;;;;;;;;5053490;28;20033;-59
2023/06/05 07:27:20;;;;;;;4.88;2.35;;;;;;;;;;5055578;28;20021;-59
2023/06/05 07:29:46;;;;;;;4.55;2.45;;;;;;;;;;5056577;28;20021;-59
2023/06/05 07:32:13;;;;;;;4.13;2.40;;;;;;;;;;5056835;28;20028;-59
2023/06/05 07:34:39;;;;;;;4.40;2.97;;;;;;;;;;5056799;28;20032;-59
2023/06/05 07:37:07;;;;;;;3.70;2.72;;;;;;;;;;5057263;28;20017;-59
2023/06/05 07:39:33;;;;;;;5.10;3.28;;;;;;;;;;5056132;28;20475;-59
2023/06/05 07:41:59;;;;;;;2.83;2.35;;;;;;;;;;5056690;28;20078;-59
2023/06/05 07:44:25;;;;;;;3.65;2.60;;;;;;;;;;5056138;28;20033;-59
2023/06/05 07:46:52;;;;;;;5.30;3.03;;;;;;;;;;5056885;28;20029;-59
2023/06/05 07:49:18;;;;;;;7.03;2.50;;;;;;;;;;5056470;28;20112;-59
2023/06/05 07:51:47;;;;;;;4.55;3.20;;;;;;;;;;5056198;28;20108;-59
2023/06/05 07:54:15;;;;;;;5.13;3.13;;;;;;;;;;5056984;28;20029;-59
2023/06/05 07:56:41;;;;;;;5.40;3.55;;;;;;;;;;5056648;28;20032;-59
2023/06/05 07:59:07;;;;;;;5.68;4.03;;;;;;;;;;5055926;28;20029;-59
2023/06/05 08:01:36;;;;;;;5.75;3.70;;;;;;;;;;5055980;28;20032;-59
2023/06/05 08:04:03;;;;;;;3.92;3.08;;;;;;;;;;5055941;28;20029;-59
2023/06/05 08:06:29;;;;;;;4.38;3.40;;;;;;;;;;5056821;28;20119;-59
2023/06/05 08:08:55;;;;;;;4.43;3.00;;;;;;;;;;5055859;28;20029;-59
2023/06/05 08:11:21;;;;;;;4.80;3.20;;;;;;;;;;5056097;28;20027;-59
2023/06/05 08:13:47;;;;;;;5.25;3.38;;;;;;;;;;5056199;28;20471;-59
2023/06/05 08:16:15;;;;;;;4.20;3.38;;;;;;;;;;5055810;28;20490;-59
2023/06/05 08:18:41;;;;;;;5.38;3.50;;;;;;;;;;5056251;28;20367;-59
2023/06/05 08:21:07;;;;;;;3.85;2.55;;;;;;;;;;5056524;28;20033;-59
2023/06/05 08:23:33;;;;;;;6.53;3.58;;;;;;;;;;5055364;28;20025;-59
2023/06/05 08:25:59;;;;;;;5.53;3.70;;;;;;;;;;5055970;28;20028;-59
2023/06/05 08:28:25;;;;;;;4.30;3.42;;;;;;;;;;5055572;28;20029;-59
2023/06/05 08:30:51;;;;;;;7.70;3.95;;;;;;;;;;5055564;28;20425;-59
2023/06/05 08:33:18;;;;;;;17.50;3.65;;;;;;;;;;5055447;28;20078;-59
2023/06/05 08:35:44;;;;;;;4.00;3.38;;;;;;;;;;5055398;28;20021;-59
2023/06/05 08:38:10;;;;;;;6.20;3.33;;;;;;;;;;5055758;28;20413;-59
2023/06/05 08:40:36;;;;;;;6.68;3.60;;;;;;;;;;5055359;28;20021;-59
2023/06/05 08:43:02;;;;;;;6.20;3.97;;;;;;;;;;5055811;28;20053;-59
2023/06/05 08:45:28;;;;;;;5.25;3.80;;;;;;;;;;5055199;28;20036;-59
2023/06/05 08:47:55;;;;;;;4.78;3.55;;;;;;;;;;5055742;28;20021;-59
2023/06/05 08:50:21;;;;;;;3.90;3.28;;;;;;;;;;5055460;28;20025;-59
2023/06/05 08:52:49;;;;;;;4.03;3.63;;;;;;;;;;5055081;28;20028;-59
2023/06/05 08:55:16;;;;;;;4.65;3.58;;;;;;;;;;5055588;28;20036;-59
2023/06/05 08:57:42;;;;;;;4.15;3.20;;;;;;;;;;5054777;28;20107;-59
2023/06/05 09:00:10;;;;;;;4.85;3.90;;;;;;;;;;5055158;28;20025;-59
2023/06/05 09:02:38;;;;;;;5.07;4.57;;;;;;;;;;5054631;28;20029;-59
2023/06/05 09:05:04;;;;;;;4.60;3.67;;;;;;;;;;5054707;28;20116;-59
2023/06/05 09:07:33;;;;;;;4.75;3.42;;;;;;;;;;5055399;28;20352;-59
2023/06/05 09:09:59;;;;;;;5.10;3.58;;;;;;;;;;5055281;28;20348;-59
2023/06/05 09:12:25;;;;;;;5.18;3.85;;;;;;;;;;5054691;28;20044;-59
2023/06/05 09:14:52;;;;;;;5.40;4.75;;;;;;;;;;5054604;28;20431;-59
2023/06/05 09:17:18;;;;;;;5.05;3.83;;;;;;;;;;5054618;28;20521;-59
2023/06/05 09:19:47;;;;;;;5.10;3.95;;;;;;;;;;5054277;28;20475;-59
2023/06/05 09:22:14;;;;;;;5.38;3.70;;;;;;;;;;5054507;28;20024;-59
2023/06/05 09:24:41;;;;;;;5.88;3.50;;;;;;;;;;5054920;28;20033;-59
2023/06/05 09:27:08;;;;;;;7.55;4.47;;;;;;;;;;5055020;28;20028;-59
2023/06/05 09:29:36;;;;;;;4.93;3.35;;;;;;;;;;5054437;28;20483;-59
2023/06/05 09:32:30;;;;;;;6.68;3.72;;;;;;;;;;5054175;28;20064;-59
2023/06/05 09:35:03;;;;;;;4.05;3.65;;;;;;;;;;5052923;28;20044;-59
2023/06/05 09:37:35;;;;;;;6.18;3.38;;;;;;;;;;5054496;28;20075;-59
2023/06/05 09:40:01;;;;;;;5.18;3.80;;;;;;;;;;5054545;28;20017;-59
2023/06/05 09:42:33;;;;;;;4.32;3.28;;;;;;;;;;5054636;28;20017;-60
2023/06/05 09:45:00;;;;;;;6.45;3.95;;;;;;;;;;5054026;28;20029;-59
2023/06/05 09:47:26;;;;;;;3.97;2.95;;;;;;;;;;5054711;28;20079;-59
2023/06/05 09:49:52;;;;;;;3.65;3.25;;;;;;;;;;5053799;28;20031;-59
2023/06/05 09:52:18;;;;;;;5.57;4.13;;;;;;;;;;5054459;28;20119;-59
2023/06/05 09:54:45;;;;;;;5.32;3.70;;;;;;;;;;5054471;28;20024;-59
2023/06/05 09:57:12;;;;;;;4.20;3.45;;;;;;;;;;5053697;28;20467;-59
2023/06/05 09:59:45;;;;;;;4.43;3.50;;;;;;;;;;5053916;28;20037;-59
2023/06/05 10:02:15;;;;;;;3.78;3.35;;;;;;;;;;5053981;28;20374;-59
2023/06/05 10:04:41;;;;;;;;;;;;;;;;;;5054197;28;20483;-59
2023/06/05 10:07:08;;;;;;;6.53;2.92;;;;;;;;;;5054197;28;19948;-59
2023/06/05 10:09:34;;;;;;;9.35;3.67;;;;;;;;;;5054301;28;20108;-59
2023/06/05 10:12:01;;;;;;;5.03;3.70;;;;;;;;;;5054535;28;20017;-59
2023/06/05 10:14:27;;;;;;;4.38;3.42;;;;;;;;;;5053784;28;20131;-59
2023/06/05 10:16:54;;;;;;;4.53;3.65;;;;;;;;;;5054462;28;20439;-59
2023/06/05 10:19:20;;;;;;;4.55;3.35;;;;;;;;;;5054210;28;20126;-60
2023/06/05 10:21:49;;;;;;;5.97;3.65;;;;;;;;;;5053409;28;20463;-59
2023/06/05 10:24:21;;;;;;;3.58;3.00;;;;;;;;;;5053524;28;20029;-60
2023/06/05 10:26:47;;;;;;;5.10;3.28;;;;;;;;;;5053933;28;20033;-59
2023/06/05 10:29:16;;;;;;;5.70;4.10;;;;;;;;;;5053235;28;20025;-60
2023/06/05 10:31:42;;;;;;;3.58;3.28;;;;;;;;;;5053542;28;20036;-59
2023/06/05 10:34:22;;;;;;;4.57;3.25;;;;;;;;;;5053547;28;20104;-59
2023/06/05 10:37:07;;;;;;;4.95;3.97;;;;;;;;;;5053827;28;20497;-60
2023/06/05 10:39:34;;;;;;;4.32;3.10;;;;;;;;;;5053328;28;20020;-60
2023/06/05 10:42:00;;;;;;;4.30;3.30;;;;;;;;;;5053466;28;20024;-59
2023/06/05 10:44:39;;;;;;;5.57;3.33;;;;;;;;;;5053413;28;20044;-59
2023/06/05 10:47:25;;;;;;;5.50;3.70;;;;;;;;;;5054076;28;20029;-59
2023/06/05 10:50:10;;;;;;;4.05;2.75;;;;;;;;;;5049099;28;20040;-59
2023/06/05 10:52:36;;;;;;;5.35;3.30;;;;;;;;;;5053387;28;20033;-59
2023/06/05 10:55:03;;;;;;;5.95;2.90;;;;;;;;;;5053991;28;20447;-60
2023/06/05 10:57:49;;;;;;;3.40;2.75;;;;;;;;;;5053730;28;20033;-60
2023/06/05 11:00:15;;;;;;;4.63;3.25;;;;;;;;;;5053589;28;20096;-59
2023/06/05 11:02:47;;;;;;;4.47;3.05;;;;;;;;;;5055973;28;20059;-60
2023/06/05 11:05:13;;;;;;;7.57;3.67;;;;;;;;;;5057935;28;20033;-60
2023/06/05 11:07:39;;;;;;;4.45;3.25;;;;;;;;;;5057614;28;20021;-60
2023/06/05 11:10:15;;;;;;;5.18;3.33;;;;;;;;;;5057214;28;20086;-60
2023/06/05 11:12:41;;;;;;;4.28;3.03;;;;;;;;;;5057342;28;20332;-60
2023/06/05 11:15:10;;;;;;;3.58;3.10;;;;;;;;;;5056554;28;20098;-60
2023/06/05 11:17:40;;;;;;;4.05;3.13;;;;;;;;;;5056985;28;20371;-60
2023/06/05 11:20:24;;;;;;;5.50;3.22;;;;;;;;;;5056899;28;20100;-59
2023/06/05 11:22:53;;;;;;;4.40;3.13;;;;;;;;;;5057641;28;20048;-60
2023/06/05 11:25:24;;;;;;;4.78;3.55;;;;;;;;;;5057178;28;20025;-60
2023/06/05 11:27:50;;;;;;;5.25;3.30;;;;;;;;;;5056711;28;20029;-60
2023/06/05 11:30:17;;;;;;;7.55;3.25;;;;;;;;;;5056230;28;20096;-60
2023/06/05 11:32:43;;;;;;;4.22;3.00;;;;;;;;;;5056589;28;20025;-60
2023/06/05 11:35:09;;;;;;;3.83;2.75;;;;;;;;;;5057352;28;20040;-60
2023/06/05 11:37:36;;;;;;;3.97;3.05;;;;;;;;;;5056864;28;20013;-60
2023/06/05 11:40:20;;;;;;;3.65;2.90;;;;;;;;;;5056640;28;20025;-60
2023/06/05 11:42:46;;;;;;;4.30;3.30;;;;;;;;;;5056488;28;20021;-60
2023/06/05 11:45:13;;;;;;;3.28;2.50;;;;;;;;;;5056319;28;20356;-60
2023/06/05 11:47:39;;;;;;;5.57;2.75;;;;;;;;;;5056590;28;20033;-60
2023/06/05 11:50:12;;;;;;;4.13;2.60;;;;;;;;;;5056504;28;20055;-60
2023/06/05 11:52:38;;;;;;;3.88;2.72;;;;;;;;;;5056348;28;20043;-60
2023/06/05 11:55:19;;;;;;;4.03;2.53;;;;;;;;;;5056448;28;20033;-60
2023/06/05 11:57:49;;;;;;;3.35;2.28;;;;;;;;;;5056657;28;20025;-60
2023/06/05 12:00:16;;;;;;;3.40;2.50;;;;;;;;;;5056651;28;20017;-59
2023/06/05 12:02:43;;;;;;;3.55;2.60;;;;;;;;;;5055885;28;20435;-59
2023/06/05 12:05:09;;;;;;;4.50;2.88;;;;;;;;;;5056248;28;20037;-60
2023/06/05 12:07:39;;;;;;;2.78;2.35;;;;;;;;;;5056529;28;20037;-60
2023/06/05 12:10:06;;;;;;;3.10;2.35;;;;;;;;;;5055885;28;20040;-60
2023/06/05 12:12:33;;;;;;;4.10;2.80;;;;;;;;;;5056289;28;20100;-60
2023/06/05 12:15:13;;;;;;;3.92;2.70;;;;;;;;;;5056530;28;20126;-60
2023/06/05 12:17:40;;;;;;;3.22;2.10;;;;;;;;;;5056129;28;20128;-60
2023/06/05 12:20:08;;;;;;;3.90;2.17;;;;;;;;;;5055352;28;20107;-60
2023/06/05 12:22:34;;;;;;;4.70;3.22;;;;;;;;;;5056059;28;20116;-60
2023/06/05 12:25:16;;;;;;;3.53;2.75;;;;;;;;;;5055479;28;20040;-60
2023/06/05 12:27:42;;;;;;;4.32;2.65;;;;;;;;;;5055587;28;20021;-60
2023/06/05 12:30:09;;;;;;;3.55;2.13;;;;;;;;;;5056074;28;20035;-60
2023/06/05 12:32:35;;;;;;;3.50;2.78;;;;;;;;;;5055527;28;20118;-60
2023/06/05 12:35:01;;;;;;;3.58;2.33;;;;;;;;;;5055338;28;20363;-60
2023/06/05 12:37:29;;;;;;;3.38;2.28;;;;;;;;;;5055938;28;20051;-60
2023/06/05 12:39:56;;;;;;;3.95;2.80;;;;;;;;;;5055325;28;20021;-59
2023/06/05 12:42:22;;;;;;;5.57;2.88;;;;;;;;;;5055282;28;20021;-60
2023/06/05 12:44:48;;;;;;;5.15;2.95;;;;;;;;;;5055099;28;20103;-60
2023/06/05 12:47:14;;;;;;;3.80;2.63;;;;;;;;;;5055958;28;20032;-60
2023/06/05 12:49:40;;;;;;;4.22;2.72;;;;;;;;;;5055788;28;20447;-60
2023/06/05 12:52:08;;;;;;;6.00;2.55;;;;;;;;;;5055642;28;20028;-60
2023/06/05 12:54:35;;;;;;;3.78;2.53;;;;;;;;;;5054977;28;20021;-60
2023/06/05 12:57:01;;;;;;;3.97;3.13;;;;;;;;;;5055357;28;20055;-60
2023/06/05 12:59:27;;;;;;;6.20;2.95;;;;;;;;;;5054736;28;20052;-60
2023/06/05 13:01:53;;;;;;;4.60;3.17;;;;;;;;;;5055128;28;20435;-60
2023/06/05 13:04:19;;;;;;;3.90;2.70;;;;;;;;;;5054610;28;20056;-60
2023/06/05 13:06:46;;;;;;;5.28;2.25;;;;;;;;;;5055093;28;20021;-60
2023/06/05 13:09:12;;;;;;;6.50;2.97;;;;;;;;;;5055169;28;20025;-60
2023/06/05 13:11:38;;;;;;;3.80;2.90;;;;;;;;;;5054903;28;20443;-60
2023/06/05 13:14:05;;;;;;;3.35;2.47;;;;;;;;;;5054559;28;20079;-60
2023/06/05 13:16:31;;;;;;;3.33;2.63;;;;;;;;;;5055255;28;20057;-60
2023/06/05 13:18:57;;;;;;;4.45;3.13;;;;;;;;;;5054401;28;20339;-60
2023/06/05 13:21:24;;;;;;;5.13;3.13;;;;;;;;;;5054366;28;20075;-60
2023/06/05 13:23:50;;;;;;;3.33;2.70;;;;;;;;;;5053850;28;20033;-60
2023/06/05 13:26:16;;;;;;;5.95;3.15;;;;;;;;;;5054631;28;20530;-60
2023/06/05 13:28:44;;;;;;;4.85;3.00;;;;;;;;;;5054192;28;20387;-60
2023/06/05 13:31:10;;;;;;;4.78;2.75;;;;;;;;;;5054259;28;20021;-60
2023/06/05 13:33:37;;;;;;;4.00;2.88;;;;;;;;;;5054033;28;20029;-60
2023/06/05 13:36:03;;;;;;;6.72;2.83;;;;;;;;;;5054760;28;20021;-60
2023/06/05 13:38:29;;;;;;;3.67;2.90;;;;;;;;;;5054178;28;20040;-60
2023/06/05 13:40:55;;;;;;;5.55;2.92;;;;;;;;;;5054192;28;20017;-60
2023/06/05 13:43:21;;;;;;;4.53;3.08;;;;;;;;;;5054281;28;20024;-60
2023/06/05 13:45:47;;;;;;;3.78;3.22;;;;;;;;;;5054522;28;20033;-60
2023/06/05 13:48:13;;;;;;;5.43;3.40;;;;;;;;;;5054793;28;20075;-60
2023/06/05 13:50:39;;;;;;;4.03;2.55;;;;;;;;;;5053987;28;20029;-60
2023/06/05 13:53:05;;;;;;;3.65;2.65;;;;;;;;;;5053859;28;20060;-60
2023/06/05 13:55:31;;;;;;;3.20;2.70;;;;;;;;;;5053529;28;20050;-60
2023/06/05 13:58:01;;;;;;;4.13;2.97;;;;;;;;;;5053954;28;20510;-60
2023/06/05 14:00:27;;;;;;;8.05;3.13;;;;;;;;;;5053884;28;20360;-60
2023/06/05 14:02:53;;;;;;;3.20;2.30;;;;;;;;;;5053736;28;20029;-60
2023/06/05 14:05:19;;;;;;;4.90;2.70;;;;;;;;;;5053955;28;20029;-60
2023/06/05 14:07:45;;;;;;;4.55;3.22;;;;;;;;;;5054313;28;20127;-60
2023/06/05 14:10:11;;;;;;;3.75;2.85;;;;;;;;;;5053744;28;20135;-60
2023/06/05 14:12:37;;;;;;;4.65;2.78;;;;;;;;;;5053594;28;20600;-60
2023/06/05 14:15:03;;;;;;;3.20;2.67;;;;;;;;;;5053945;28;20057;-60
2023/06/05 14:17:29;;;;;;;4.80;2.85;;;;;;;;;;5053704;28;20100;-60
2023/06/05 14:19:56;;;;;;;3.78;2.90;;;;;;;;;;5054261;28;20116;-60
2023/06/05 14:22:22;;;;;;;4.22;3.53;;;;;;;;;;5052041;28;20463;-60
2023/06/05 14:24:48;;;;;;;4.88;3.30;;;;;;;;;;5053817;28;20037;-60
2023/06/05 14:27:15;;;;;;;4.00;2.95;;;;;;;;;;5053653;28;20032;-60
2023/06/05 14:29:41;;;;;;;4.38;3.20;;;;;;;;;;5053563;28;20135;-61
2023/06/05 14:32:07;;;;;;;3.42;2.75;;;;;;;;;;5053839;28;20025;-60
2023/06/05 14:34:34;;;;;;;5.28;3.08;;;;;;;;;;5053450;28;20017;-60
2023/06/05 14:37:00;;;;;;;5.00;2.88;;;;;;;;;;5057314;28;20024;-60
2023/06/05 14:39:26;;;;;;;8.23;3.15;;;;;;;;;;5057497;28;20083;-60
2023/06/05 14:41:52;;;;;;;7.25;3.13;;;;;;;;;;5057550;28;20032;-58
2023/06/05 14:44:18;;;;;;;3.10;2.80;;;;;;;;;;5057371;28;20029;-58